Time;durP1;ratioP1;P1;durP2;ratioP2;P2;SDS_P1;SDS_P2;PMS_P1;PMS_P2;Temp;Humidity;BMP_temperature;BMP_pressure;BME280_temperature;BME280_humidity;BME280_pressure;Samples;Min_cycle;Max_cycle;Signal;HPM_P1;HPM_P2
2022/12/28 00:00:07;;;;;;;3.57;3.07;;;2.30;99.90;;;;;;6209527;23;20422;-73
2022/12/28 00:02:34;;;;;;;4.00;2.20;;;2.30;99.90;;;;;;6210201;23;20416;-74
2022/12/28 00:05:01;;;;;;;2.93;2.63;;;2.30;99.90;;;;;;6209599;23;20482;-74
2022/12/28 00:07:28;;;;;;;2.47;2.27;;;2.40;99.90;;;;;;6209929;23;20740;-74
2022/12/28 00:09:56;;;;;;;2.20;2.00;;;2.30;99.90;;;;;;6214118;23;20431;-75
2022/12/28 00:12:22;;;;;;;2.93;2.63;;;2.20;99.90;;;;;;6210181;23;20900;-74
2022/12/28 00:14:49;;;;;;;2.40;2.20;;;2.10;99.90;;;;;;6209661;23;20411;-73
2022/12/28 00:17:16;;;;;;;2.90;2.13;;;2.30;99.90;;;;;;6210542;23;20411;-73
2022/12/28 00:19:43;;;;;;;6.93;2.47;;;2.30;99.90;;;;;;6211159;23;20414;-75
2022/12/28 00:22:10;;;;;;;4.73;2.97;;;2.20;99.90;;;;;;6210958;23;20902;-75
2022/12/28 00:24:36;;;;;;;3.20;2.67;;;2.30;99.90;;;;;;6211638;23;20407;-74
2022/12/28 00:27:04;;;;;;;3.20;2.60;;;2.20;99.90;;;;;;6211427;23;20409;-75
2022/12/28 00:29:31;;;;;;;2.43;2.17;;;2.20;99.90;;;;;;6210783;23;20417;-74
2022/12/28 00:31:58;;;;;;;2.50;2.30;;;2.20;99.90;;;;;;6210720;23;20418;-74
2022/12/28 00:34:25;;;;;;;2.77;2.47;;;2.20;99.90;;;;;;6217367;22;20409;-74
2022/12/28 00:36:52;;;;;;;4.00;3.70;;;2.20;99.90;;;;;;6217584;22;20464;-76
2022/12/28 00:39:20;;;;;;;3.27;2.20;;;2.20;99.90;;;;;;6209989;23;20642;-73
2022/12/28 00:41:47;;;;;;;3.20;2.07;;;2.20;99.90;;;;;;6210234;23;20399;-73
2022/12/28 00:44:15;;;;;;;2.87;2.23;;;2.20;99.90;;;;;;6209883;23;20417;-73
2022/12/28 00:46:42;;;;;;;3.10;2.50;;;2.00;99.90;;;;;;6210313;23;20411;-73
2022/12/28 00:49:09;;;;;;;2.50;2.27;;;2.00;99.90;;;;;;6209578;23;20930;-74
2022/12/28 00:51:36;;;;;;;3.17;2.60;;;1.90;99.90;;;;;;6209372;23;20638;-73
2022/12/28 00:54:03;;;;;;;2.00;1.80;;;2.00;99.90;;;;;;6210328;23;20401;-73
2022/12/28 00:56:30;;;;;;;2.87;2.00;;;2.00;99.90;;;;;;6209447;23;20447;-73
2022/12/28 00:58:57;;;;;;;2.10;1.93;;;1.90;99.90;;;;;;6209742;23;20392;-73
2022/12/28 01:01:26;;;;;;;2.27;2.07;;;1.90;99.90;;;;;;6210081;23;20413;-73
2022/12/28 01:03:55;;;;;;;2.27;1.90;;;2.10;99.90;;;;;;6210142;23;20402;-73
2022/12/28 01:06:22;;;;;;;1.83;1.70;;;2.10;99.90;;;;;;6210213;23;20754;-73
2022/12/28 01:08:49;;;;;;;2.47;1.87;;;2.20;99.90;;;;;;6209303;23;20421;-73
2022/12/28 01:11:17;;;;;;;2.13;2.03;;;2.20;99.90;;;;;;6209610;23;20412;-74
2022/12/28 01:13:45;;;;;;;2.90;1.97;;;2.20;99.90;;;;;;6209983;23;20417;-73
2022/12/28 01:16:13;;;;;;;2.30;2.10;;;2.30;99.90;;;;;;6209969;23;20940;-73
2022/12/28 01:18:42;;;;;;;2.53;1.73;;;2.20;99.90;;;;;;6210736;23;20408;-76
2022/12/28 01:21:12;;;;;;;5.33;2.50;;;2.30;99.90;;;;;;6209464;23;20390;-73
2022/12/28 01:23:39;;;;;;;2.33;1.77;;;2.40;99.90;;;;;;6209445;23;20805;-74
2022/12/28 01:26:06;;;;;;;2.70;1.93;;;2.30;99.90;;;;;;6209702;23;20399;-75
2022/12/28 01:28:33;;;;;;;3.20;2.30;;;2.20;99.90;;;;;;6210387;23;20417;-73
2022/12/28 01:31:04;;;;;;;1.93;1.70;;;2.30;99.90;;;;;;6209858;23;20425;-73
2022/12/28 01:33:31;;;;;;;2.20;1.57;;;2.20;99.90;;;;;;6210105;23;20399;-73
2022/12/28 01:35:59;;;;;;;2.33;1.83;;;2.30;99.90;;;;;;6209657;23;20443;-73
2022/12/28 01:38:25;;;;;;;2.13;1.70;;;2.30;99.90;;;;;;6209429;23;20410;-73
2022/12/28 01:40:52;;;;;;;1.80;1.43;;;2.20;99.90;;;;;;6210359;23;20418;-73
2022/12/28 01:43:19;;;;;;;3.60;1.93;;;2.10;99.90;;;;;;6210106;23;20413;-73
2022/12/28 01:45:51;;;;;;;2.07;1.60;;;2.20;99.90;;;;;;6209820;23;20407;-73
2022/12/28 01:48:24;;;;;;;2.03;1.63;;;2.20;99.90;;;;;;6209601;23;20383;-73
2022/12/28 01:50:52;;;;;;;2.47;2.10;;;2.20;99.90;;;;;;6209557;23;20383;-73
2022/12/28 01:53:21;;;;;;;3.10;1.80;;;2.10;99.90;;;;;;6211384;23;20446;-73
2022/12/28 01:55:49;;;;;;;2.10;1.60;;;2.00;99.90;;;;;;6211375;23;20446;-73
2022/12/28 01:58:21;;;;;;;1.93;1.60;;;1.80;99.90;;;;;;6212035;23;20411;-73
2022/12/28 02:00:47;;;;;;;1.80;1.50;;;1.70;99.90;;;;;;6211923;23;20421;-73
2022/12/28 02:03:19;;;;;;;2.03;1.43;;;1.70;99.90;;;;;;6211730;23;20425;-73
2022/12/28 02:05:49;;;;;;;3.43;2.20;;;1.70;99.90;;;;;;6211706;23;20387;-73
2022/12/28 02:08:22;;;;;;;2.97;1.60;;;1.80;99.90;;;;;;6211916;23;20400;-74
2022/12/28 02:10:51;;;;;;;1.83;1.73;;;1.80;99.90;;;;;;6212895;23;20429;-74
2022/12/28 02:13:20;;;;;;;3.07;1.90;;;1.90;99.90;;;;;;6213838;23;20407;-74
2022/12/28 02:15:48;;;;;;;2.30;1.70;;;1.90;99.90;;;;;;6213716;23;20438;-74
2022/12/28 02:18:16;;;;;;;2.37;1.33;;;1.80;99.90;;;;;;6213766;23;20409;-74
2022/12/28 02:20:57;;;;;;;2.63;1.60;;;1.90;99.90;;;;;;6213109;23;20425;-74
2022/12/28 02:23:37;;;;;;;1.43;1.30;;;1.90;99.90;;;;;;6213007;23;20391;-73
2022/12/28 02:26:55;;;;;;;1.93;1.67;;;2.00;99.90;;;;;;6212906;23;20446;-73
2022/12/28 02:29:58;;;;;;;2.53;1.27;;;2.00;99.90;;;;;;6202854;23;20753;-73
2022/12/28 02:32:46;;;;;;;2.33;1.47;;;1.90;99.90;;;;;;6212815;23;20911;-74
2022/12/28 02:35:19;;;;;;;1.60;1.30;;;2.00;99.90;;;;;;6211338;23;20417;-73
2022/12/28 02:37:48;;;;;;;1.73;1.40;;;2.10;99.90;;;;;;6211709;23;20435;-73
2022/12/28 02:40:20;;;;;;;2.43;1.80;;;2.00;99.90;;;;;;6211635;23;20399;-73
2022/12/28 02:42:47;;;;;;;2.87;1.60;;;1.90;99.90;;;;;;6211439;23;20477;-73
2022/12/28 02:51:17;;;;;;;1.97;1.83;;;2.10;99.90;;;;;;6211111;23;20915;-73
2022/12/28 02:54:01;;;;;;;2.33;1.53;;;2.00;99.90;;;;;;6210840;23;20525;-73
2022/12/28 02:56:37;;;;;;;2.77;2.00;;;2.00;99.90;;;;;;6210383;23;20772;-73
2022/12/28 02:59:27;;;;;;;2.00;1.77;;;2.10;99.90;;;;;;6211029;23;20386;-73
2022/12/28 03:02:18;;;;;;;2.33;1.43;;;2.20;99.90;;;;;;6211050;23;20411;-73
2022/12/28 03:05:01;;;;;;;2.80;1.53;;;2.20;99.90;;;;;;6211413;23;20391;-73
2022/12/28 03:10:25;;;;;;;1.70;1.60;;;2.10;99.90;;;;;;6210750;23;20489;-74
2022/12/28 03:13:00;;;;;;;1.60;1.50;;;2.10;99.90;;;;;;6210813;23;20398;-73
2022/12/28 03:15:30;;;;;;;2.17;1.80;;;2.00;99.90;;;;;;6211120;23;20382;-73
2022/12/28 03:31:56;;;;;;;1.50;1.23;;;2.10;99.90;;;;;;6211184;23;20424;-73
2022/12/28 03:34:24;;;;;;;1.80;1.67;;;2.20;99.90;;;;;;6212380;23;20461;-73
2022/12/28 03:36:59;;;;;;;1.50;1.30;;;2.10;99.90;;;;;;6212038;23;20799;-74
2022/12/28 03:39:34;;;;;;;2.87;1.60;;;2.10;99.90;;;;;;6211343;23;20438;-73
2022/12/28 03:45:00;;;;;;;1.63;1.53;;;2.20;99.90;;;;;;6210377;23;20462;-73
2022/12/28 03:47:28;;;;;;;3.40;1.60;;;2.20;99.90;;;;;;6211095;23;20459;-73
2022/12/28 03:49:55;;;;;;;2.27;1.63;;;2.10;99.90;;;;;;6210267;23;20451;-74
2022/12/28 03:52:24;;;;;;;3.97;1.50;;;2.20;99.90;;;;;;6209855;23;20439;-73
2022/12/28 03:54:51;;;;;;;1.80;1.60;;;2.10;99.90;;;;;;6210592;23;20407;-73
2022/12/28 03:57:18;;;;;;;2.60;1.70;;;2.10;99.90;;;;;;6210097;23;20772;-73
2022/12/28 03:59:45;;;;;;;1.60;1.50;;;2.10;99.90;;;;;;6211057;23;20904;-74
2022/12/28 04:02:12;;;;;;;3.30;1.40;;;2.20;99.90;;;;;;6211339;23;20429;-73
2022/12/28 04:04:38;;;;;;;2.70;1.70;;;2.30;99.90;;;;;;6211131;23;20410;-73
2022/12/28 04:07:05;;;;;;;1.90;1.40;;;2.30;99.90;;;;;;6210330;23;20411;-73
2022/12/28 04:09:33;;;;;;;2.00;1.50;;;2.20;99.90;;;;;;6209831;23;20430;-73
2022/12/28 04:12:01;;;;;;;2.17;1.57;;;2.30;99.90;;;;;;6210117;23;20415;-74
2022/12/28 04:14:28;;;;;;;2.60;1.63;;;2.30;99.90;;;;;;6210707;23;20421;-73
2022/12/28 04:16:54;;;;;;;1.70;1.60;;;2.30;99.90;;;;;;6210371;23;20446;-73
2022/12/28 04:19:21;;;;;;;1.70;1.60;;;2.30;99.90;;;;;;6210348;23;20411;-73
2022/12/28 04:21:48;;;;;;;1.37;1.10;;;2.30;99.90;;;;;;6210183;23;20407;-73
2022/12/28 04:24:15;;;;;;;2.00;1.80;;;2.20;99.90;;;;;;6210380;23;20421;-73
2022/12/28 04:26:43;;;;;;;1.90;1.50;;;2.30;99.90;;;;;;6210588;23;20411;-73
2022/12/28 04:29:09;;;;;;;2.43;1.60;;;2.30;99.90;;;;;;6209820;23;20414;-73
2022/12/28 04:31:36;;;;;;;3.17;1.47;;;2.40;99.90;;;;;;6210003;23;20407;-73
2022/12/28 04:34:04;;;;;;;1.60;1.50;;;2.50;99.90;;;;;;6210032;23;20772;-73
2022/12/28 04:36:30;;;;;;;3.40;1.83;;;2.50;99.90;;;;;;6210110;23;20449;-73
2022/12/28 04:38:58;;;;;;;3.03;2.83;;;2.50;99.90;;;;;;6209941;23;20407;-73
2022/12/28 04:41:26;;;;;;;1.67;1.30;;;2.60;99.90;;;;;;6209796;23;20435;-73
2022/12/28 04:43:56;;;;;;;2.10;1.40;;;2.50;99.90;;;;;;6209697;23;20403;-74
2022/12/28 04:46:23;;;;;;;7.83;1.90;;;2.50;99.90;;;;;;6210997;23;20402;-73
2022/12/28 04:48:50;;;;;;;1.57;1.40;;;2.60;99.90;;;;;;6210208;23;20415;-74
2022/12/28 04:51:20;;;;;;;1.40;1.30;;;2.60;99.90;;;;;;6210931;23;20497;-73
2022/12/28 04:53:47;;;;;;;1.50;1.40;;;2.60;99.90;;;;;;6211657;23;20445;-73
2022/12/28 04:56:15;;;;;;;1.53;1.43;;;2.60;99.90;;;;;;6216053;23;20482;-78
2022/12/28 04:58:43;;;;;;;2.00;1.90;;;2.50;99.90;;;;;;6212894;23;20407;-74
2022/12/28 05:01:12;;;;;;;1.50;1.30;;;2.60;99.90;;;;;;6211870;23;20415;-73
2022/12/28 05:03:41;;;;;;;1.40;1.27;;;2.60;99.90;;;;;;6211830;23;20697;-74
2022/12/28 05:06:11;;;;;;;2.23;1.63;;;2.60;99.90;;;;;;6212440;23;20411;-73
2022/12/28 05:08:38;;;;;;;3.07;1.30;;;2.70;99.90;;;;;;6210288;23;20493;-75
2022/12/28 05:11:07;;;;;;;2.00;1.70;;;2.70;99.90;;;;;;6209980;23;20832;-73
2022/12/28 05:13:34;;;;;;;1.90;1.43;;;2.70;99.90;;;;;;6209676;23;20414;-73
2022/12/28 05:16:02;;;;;;;1.80;1.20;;;2.70;99.90;;;;;;6209556;23;20682;-73
2022/12/28 05:18:30;;;;;;;1.63;1.50;;;2.70;99.90;;;;;;6209842;23;20446;-73
2022/12/28 05:21:00;;;;;;;1.40;1.10;;;2.60;99.90;;;;;;6210338;23;20931;-74
2022/12/28 05:23:29;;;;;;;1.53;1.43;;;2.70;99.90;;;;;;6210683;23;20411;-74
2022/12/28 05:25:56;;;;;;;1.43;1.20;;;2.80;99.90;;;;;;6210607;23;20959;-74
2022/12/28 05:28:23;;;;;;;1.87;1.47;;;2.80;99.90;;;;;;6212110;23;20481;-73
2022/12/28 05:30:51;;;;;;;4.13;1.40;;;2.80;99.90;;;;;;6211812;23;20410;-73
2022/12/28 05:33:17;;;;;;;1.60;1.30;;;2.60;99.90;;;;;;6211614;23;20493;-74
2022/12/28 05:35:45;;;;;;;3.00;1.50;;;2.60;99.90;;;;;;6212003;23;20448;-73
2022/12/28 05:38:12;;;;;;;1.80;1.30;;;2.70;99.90;;;;;;6211122;23;20453;-73
2022/12/28 05:40:39;;;;;;;1.60;1.40;;;2.80;99.90;;;;;;6211735;23;20414;-73
2022/12/28 05:43:06;;;;;;;1.27;1.17;;;2.70;99.90;;;;;;6211857;23;20392;-74
2022/12/28 05:45:33;;;;;;;2.43;1.60;;;2.70;99.90;;;;;;6211193;23;20424;-75
2022/12/28 05:47:59;;;;;;;1.80;1.30;;;2.60;99.90;;;;;;6210983;23;20829;-73
2022/12/28 05:50:26;;;;;;;1.60;1.50;;;2.60;99.90;;;;;;6211833;23;20441;-73
2022/12/28 05:52:54;;;;;;;1.70;1.60;;;2.60;99.90;;;;;;6211932;23;20465;-73
2022/12/28 05:55:21;;;;;;;1.33;1.23;;;2.60;99.90;;;;;;6211512;23;20407;-73
2022/12/28 05:57:48;;;;;;;1.40;1.30;;;2.70;99.90;;;;;;6211364;23;20448;-73
2022/12/28 06:00:15;;;;;;;1.77;1.40;;;2.80;99.90;;;;;;6211507;23;20510;-73
2022/12/28 06:02:42;;;;;;;1.73;1.63;;;2.80;99.90;;;;;;6211458;23;20415;-73
2022/12/28 06:05:09;;;;;;;1.60;1.50;;;2.80;99.90;;;;;;6210566;23;20425;-74
2022/12/28 06:07:35;;;;;;;1.30;1.20;;;2.90;99.90;;;;;;6211280;23;20406;-73
2022/12/28 06:10:04;;;;;;;2.27;1.30;;;2.90;99.90;;;;;;6211076;23;20957;-73
2022/12/28 06:12:31;;;;;;;3.07;1.17;;;2.80;99.90;;;;;;6211857;23;20432;-73
2022/12/28 06:14:58;;;;;;;1.63;1.53;;;2.70;99.90;;;;;;6211243;23;20502;-74
2022/12/28 06:17:25;;;;;;;2.50;1.47;;;2.80;99.90;;;;;;6211477;23;20475;-74
2022/12/28 06:19:52;;;;;;;1.60;1.50;;;2.90;99.90;;;;;;6211257;23;20505;-74
2022/12/28 06:22:19;;;;;;;2.00;1.40;;;2.90;99.90;;;;;;6211303;23;20411;-74
2022/12/28 06:24:45;;;;;;;1.27;1.17;;;3.00;99.90;;;;;;6211474;23;20399;-73
2022/12/28 06:27:14;;;;;;;1.50;1.30;;;3.00;99.90;;;;;;6211169;23;20406;-73
2022/12/28 06:29:40;;;;;;;2.90;1.40;;;2.90;99.90;;;;;;6210703;23;20399;-73
2022/12/28 06:32:07;;;;;;;1.53;1.40;;;2.90;99.90;;;;;;6211507;23;20417;-73
2022/12/28 06:34:34;;;;;;;1.57;1.47;;;3.00;99.90;;;;;;6211143;23;20411;-74
2022/12/28 06:37:00;;;;;;;2.30;1.60;;;3.00;99.90;;;;;;6210558;23;20457;-74
2022/12/28 06:39:28;;;;;;;1.47;1.37;;;2.90;99.90;;;;;;6211423;23;20607;-80
2022/12/28 06:41:54;;;;;;;1.60;1.50;;;2.80;99.90;;;;;;6212045;23;20802;-74
2022/12/28 06:44:22;;;;;;;1.53;1.43;;;2.80;99.90;;;;;;6211071;23;20407;-74
2022/12/28 06:46:49;;;;;;;1.90;1.37;;;2.80;99.90;;;;;;6210895;23;20406;-73
2022/12/28 06:49:16;;;;;;;1.73;1.60;;;2.80;99.90;;;;;;6210504;23;20396;-73
2022/12/28 06:51:43;;;;;;;1.77;1.47;;;2.80;99.90;;;;;;6209450;23;20410;-73
2022/12/28 06:54:10;;;;;;;2.97;1.37;;;2.80;99.90;;;;;;6209654;23;20399;-74
2022/12/28 06:56:37;;;;;;;1.60;1.50;;;2.70;99.90;;;;;;6210611;23;20399;-73
2022/12/28 06:59:05;;;;;;;1.87;1.50;;;2.80;99.90;;;;;;6211327;23;20457;-73
2022/12/28 07:01:35;;;;;;;2.20;1.57;;;2.80;99.90;;;;;;6210936;23;20743;-74
2022/12/28 07:04:03;;;;;;;2.60;1.47;;;2.80;99.90;;;;;;6212020;23;20434;-75
2022/12/28 07:06:30;;;;;;;1.50;1.40;;;2.80;99.90;;;;;;6212196;23;20402;-74
2022/12/28 07:09:01;;;;;;;3.57;1.70;;;2.90;99.90;;;;;;6210709;23;20691;-74
2022/12/28 07:11:28;;;;;;;3.97;1.50;;;2.90;99.90;;;;;;6211027;23;20437;-74
2022/12/28 07:13:55;;;;;;;8.73;1.70;;;2.90;99.90;;;;;;6211147;23;20468;-73
2022/12/28 07:16:24;;;;;;;2.77;1.40;;;2.90;99.90;;;;;;6210641;23;20403;-74
2022/12/28 07:18:52;;;;;;;1.80;1.70;;;2.90;99.90;;;;;;6210486;23;20439;-73
2022/12/28 07:21:21;;;;;;;1.57;1.30;;;3.00;99.90;;;;;;6210949;23;20477;-73
2022/12/28 07:23:49;;;;;;;3.40;1.70;;;3.00;99.90;;;;;;6211950;23;20399;-73
2022/12/28 07:26:19;;;;;;;1.80;1.70;;;3.00;99.90;;;;;;6212853;23;20497;-75
2022/12/28 07:28:47;;;;;;;1.90;1.80;;;3.00;99.90;;;;;;6212128;23;20820;-73
2022/12/28 07:31:16;;;;;;;2.17;1.60;;;3.10;99.90;;;;;;6211269;23;20395;-74
2022/12/28 07:33:52;;;;;;;2.20;1.70;;;3.10;99.90;;;;;;6210877;23;20438;-69
2022/12/28 07:36:22;;;;;;;1.70;1.60;;;3.10;99.90;;;;;;6210458;23;20473;-73
2022/12/28 07:38:49;;;;;;;2.50;1.30;;;3.10;99.90;;;;;;6210961;23;20442;-74
2022/12/28 07:41:18;;;;;;;1.73;1.63;;;3.30;99.90;;;;;;6210069;23;20408;-73
2022/12/28 07:43:45;;;;;;;3.53;1.50;;;3.40;99.90;;;;;;6210169;23;20415;-74
2022/12/28 07:46:14;;;;;;;1.33;1.23;;;3.60;99.90;;;;;;6210831;23;20403;-73
2022/12/28 07:48:42;;;;;;;2.77;1.70;;;3.50;99.90;;;;;;6210560;23;20945;-74
2022/12/28 07:51:12;;;;;;;1.43;1.33;;;3.50;99.90;;;;;;6210518;23;20849;-73
2022/12/28 07:53:41;;;;;;;2.77;1.23;;;3.50;99.90;;;;;;6210276;23;20423;-74
2022/12/28 07:56:08;;;;;;;1.60;1.50;;;3.60;99.90;;;;;;6209717;23;20411;-73
2022/12/28 07:58:35;;;;;;;1.40;1.30;;;3.60;99.90;;;;;;6210022;23;20431;-73
2022/12/28 08:01:06;;;;;;;3.83;1.77;;;3.70;99.90;;;;;;6210269;23;20912;-73
2022/12/28 08:03:33;;;;;;;2.83;1.83;;;3.60;99.90;;;;;;6209801;23;20415;-73
2022/12/28 08:06:09;;;;;;;5.73;2.23;;;3.50;99.90;;;;;;6210671;23;20418;-73
2022/12/28 08:08:36;;;;;;;2.40;2.07;;;3.70;99.90;;;;;;6209951;23;20403;-73
2022/12/28 08:11:06;;;;;;;2.30;2.10;;;3.80;99.90;;;;;;6210975;23;20403;-73
2022/12/28 08:13:34;;;;;;;2.60;2.07;;;3.80;99.90;;;;;;6209846;23;20387;-73
2022/12/28 08:16:02;;;;;;;1.70;1.60;;;3.60;99.90;;;;;;6209831;23;20417;-73
2022/12/28 08:18:29;;;;;;;2.17;1.57;;;3.70;99.90;;;;;;6209543;23;20445;-74
2022/12/28 08:21:01;;;;;;;2.70;1.70;;;3.80;99.90;;;;;;6210613;23;20417;-74
2022/12/28 08:23:28;;;;;;;2.30;2.10;;;3.90;99.90;;;;;;6210464;23;20399;-73
2022/12/28 08:25:55;;;;;;;2.10;1.67;;;3.90;99.90;;;;;;6210267;23;20522;-73
2022/12/28 08:28:23;;;;;;;3.70;1.90;;;4.00;99.90;;;;;;6209672;23;20808;-73
2022/12/28 08:30:50;;;;;;;1.87;1.60;;;4.20;99.90;;;;;;6209940;23;20447;-73
2022/12/28 08:33:17;;;;;;;3.47;1.57;;;4.40;99.90;;;;;;6209637;23;20927;-73
2022/12/28 08:35:43;;;;;;;1.67;1.57;;;4.50;99.90;;;;;;6210269;23;20504;-73
2022/12/28 08:38:10;;;;;;;4.10;1.80;;;4.70;99.90;;;;;;6210223;23;20449;-74
2022/12/28 08:40:37;;;;;;;2.00;1.50;;;4.80;99.90;;;;;;6210194;23;20409;-73
2022/12/28 08:43:04;;;;;;;3.67;1.97;;;4.80;99.90;;;;;;6209735;23;20439;-74
2022/12/28 08:45:32;;;;;;;4.50;2.07;;;4.80;99.90;;;;;;6209535;23;20904;-74
2022/12/28 08:47:58;;;;;;;13.00;2.33;;;4.80;99.90;;;;;;6210106;23;20409;-74
2022/12/28 08:50:25;;;;;;;1.67;1.57;;;4.90;99.90;;;;;;6210309;23;20407;-71
2022/12/28 08:52:52;;;;;;;1.73;1.63;;;4.90;99.90;;;;;;6210534;23;20506;-74
2022/12/28 08:55:19;;;;;;;1.50;1.20;;;4.80;99.90;;;;;;6213954;23;20403;-73
2022/12/28 08:57:46;;;;;;;1.90;1.47;;;4.80;99.90;;;;;;6209895;23;20439;-72
2022/12/28 09:00:13;;;;;;;2.50;1.50;;;5.00;99.90;;;;;;6210528;23;20400;-75
2022/12/28 09:02:42;;;;;;;2.83;1.60;;;5.00;99.90;;;;;;6210273;23;20398;-72
2022/12/28 09:05:09;;;;;;;2.10;1.33;;;5.10;99.90;;;;;;6211886;23;20904;-71
2022/12/28 09:07:36;;;;;;;2.53;1.50;;;5.20;99.90;;;;;;6211128;23;20737;-73
2022/12/28 09:10:03;;;;;;;2.30;1.50;;;5.10;99.90;;;;;;6210636;23;20437;-72
2022/12/28 09:12:30;;;;;;;1.57;1.30;;;5.20;99.90;;;;;;6210199;23;20415;-73
2022/12/28 09:14:56;;;;;;;1.97;1.40;;;5.00;99.90;;;;;;6207376;23;20494;-68
2022/12/28 09:17:23;;;;;;;1.57;1.47;;;5.30;99.90;;;;;;6204821;23;20403;-67
2022/12/28 09:19:52;;;;;;;2.50;1.70;;;5.20;99.90;;;;;;6208610;23;20495;-67
2022/12/28 09:22:19;;;;;;;5.37;1.53;;;5.30;99.90;;;;;;6205852;23;20506;-72
2022/12/28 09:24:46;;;;;;;2.93;1.50;;;5.40;99.90;;;;;;6205243;23;20419;-72
2022/12/28 09:27:12;;;;;;;2.53;1.83;;;5.30;99.90;;;;;;6204604;23;20414;-69
2022/12/28 09:29:39;;;;;;;2.03;1.90;;;5.20;99.90;;;;;;6205468;23;20439;-72
2022/12/28 09:32:06;;;;;;;1.67;1.30;;;5.50;99.90;;;;;;6205089;23;20730;-72
2022/12/28 09:34:34;;;;;;;2.70;1.50;;;5.50;99.90;;;;;;6204776;23;20407;-72
2022/12/28 09:37:03;;;;;;;3.00;1.57;;;5.80;99.90;;;;;;6205584;23;20846;-72
2022/12/28 09:39:29;;;;;;;1.43;1.33;;;5.70;99.90;;;;;;6205133;23;21072;-72
2022/12/28 09:42:00;;;;;;;1.63;1.43;;;5.90;99.90;;;;;;6205180;23;20765;-68
2022/12/28 09:44:49;;;;;;;1.77;1.50;;;6.00;99.90;;;;;;6203997;23;20399;-67
2022/12/28 09:47:30;;;;;;;1.70;1.30;;;5.80;99.90;;;;;;6204240;23;20934;-68
2022/12/28 09:50:23;;;;;;;3.33;1.40;;;6.10;99.90;;;;;;6205762;23;20387;-69
2022/12/28 09:53:22;;;;;;;1.57;1.23;;;5.90;99.90;;;;;;6189895;23;20465;-69
2022/12/28 09:55:57;;;;;;;2.63;1.30;;;5.80;99.90;;;;;;6174290;23;20422;-67
2022/12/28 09:58:24;;;;;;;1.30;1.20;;;5.60;99.90;;;;;;6205184;23;20437;-68
2022/12/28 10:00:54;;;;;;;1.90;1.20;;;5.60;99.90;;;;;;6204972;23;20391;-68
2022/12/28 10:03:23;;;;;;;2.50;1.17;;;5.80;99.90;;;;;;6204484;23;20516;-68
2022/12/28 10:05:51;;;;;;;1.80;1.40;;;5.90;99.90;;;;;;6204992;23;20410;-68
2022/12/28 10:08:22;;;;;;;2.17;1.50;;;6.10;99.90;;;;;;6204341;23;20494;-68
2022/12/28 10:10:50;;;;;;;1.30;1.20;;;5.90;99.90;;;;;;6204665;23;20427;-67
2022/12/28 10:13:20;;;;;;;1.97;1.30;;;6.10;99.90;;;;;;6206123;23;20419;-68
2022/12/28 10:15:47;;;;;;;1.67;1.57;;;6.00;99.90;;;;;;6206381;23;20397;-66
2022/12/28 10:18:15;;;;;;;1.40;1.20;;;6.20;99.90;;;;;;6204114;23;20458;-67
2022/12/28 10:20:43;;;;;;;2.30;1.30;;;6.40;99.90;;;;;;6206536;23;20411;-68
2022/12/28 10:23:16;;;;;;;1.30;1.20;;;6.60;99.90;;;;;;6205053;23;20406;-67
2022/12/28 10:25:44;;;;;;;1.30;1.20;;;6.60;99.90;;;;;;6205791;23;20387;-67
2022/12/28 10:28:11;;;;;;;1.70;1.20;;;6.70;99.90;;;;;;6205871;23;20442;-69
2022/12/28 10:30:46;;;;;;;4.60;1.20;;;6.60;99.90;;;;;;6207821;23;20425;-69
2022/12/28 10:33:17;;;;;;;2.10;1.40;;;6.40;99.90;;;;;;6205294;23;20418;-70
2022/12/28 10:35:50;;;;;;;1.40;1.30;;;6.30;99.90;;;;;;6205747;23;20548;-71
2022/12/28 10:38:22;;;;;;;2.00;1.60;;;6.70;99.90;;;;;;6205608;23;20828;-71
2022/12/28 10:40:59;;;;;;;1.37;1.27;;;6.80;99.90;;;;;;6205635;23;20387;-71
2022/12/28 10:43:29;;;;;;;1.83;1.30;;;6.80;99.90;;;;;;6206133;23;20399;-71
2022/12/28 10:45:56;;;;;;;3.70;1.60;;;6.70;99.90;;;;;;6205697;23;20465;-69
2022/12/28 10:48:27;;;;;;;2.33;1.40;;;6.70;99.90;;;;;;6205194;23;20409;-69
2022/12/28 10:50:56;;;;;;;1.93;1.37;;;6.60;99.90;;;;;;6205794;23;20395;-70
2022/12/28 10:53:30;;;;;;;2.43;1.40;;;6.70;99.90;;;;;;6205029;23;20450;-69
2022/12/28 10:56:24;;;;;;;1.33;1.23;;;6.80;99.90;;;;;;6205253;23;20402;-70
2022/12/28 10:58:52;;;;;;;2.20;1.30;;;7.10;99.90;;;;;;6205321;23;20543;-70
2022/12/28 11:01:25;;;;;;;3.37;1.40;;;7.00;99.90;;;;;;6204271;23;20521;-70
2022/12/28 11:04:02;;;;;;;2.00;1.33;;;7.00;99.90;;;;;;6205096;23;20474;-71
2022/12/28 11:06:30;;;;;;;1.50;1.20;;;7.00;99.90;;;;;;6204971;23;20390;-71
2022/12/28 11:09:14;;;;;;;3.40;1.57;;;7.10;99.90;;;;;;6201956;23;20423;-71
2022/12/28 11:11:44;;;;;;;2.10;1.50;;;7.10;99.90;;;;;;6203922;23;20406;-71
2022/12/28 11:14:17;;;;;;;2.10;1.50;;;7.10;99.90;;;;;;6207251;23;20405;-69
2022/12/28 11:16:44;;;;;;;1.30;1.20;;;7.20;99.90;;;;;;6206270;23;20388;-71
2022/12/28 11:19:12;;;;;;;1.60;1.50;;;7.20;99.90;;;;;;6205359;23;20537;-72
2022/12/28 11:21:40;;;;;;;2.40;1.50;;;7.30;99.90;;;;;;6205701;23;20406;-74
2022/12/28 11:24:12;;;;;;;2.80;1.30;;;7.40;99.90;;;;;;6204121;23;20419;-72
2022/12/28 11:26:44;;;;;;;1.77;1.40;;;7.60;99.90;;;;;;6204648;23;20399;-72
2022/12/28 11:29:13;;;;;;;1.80;1.30;;;7.60;99.90;;;;;;6204810;23;20404;-73
2022/12/28 11:31:46;;;;;;;4.30;1.17;;;7.80;99.90;;;;;;6204606;23;20411;-75
2022/12/28 11:34:27;;;;;;;2.37;1.40;;;7.80;99.90;;;;;;6203596;23;20399;-76
2022/12/28 11:36:58;;;;;;;3.33;1.70;;;8.00;99.90;;;;;;6204777;23;20828;-74
2022/12/28 11:40:02;;;;;;;2.23;1.13;;;8.60;99.90;;;;;;6205270;23;20435;-71
2022/12/28 11:42:54;;;;;;;2.27;1.63;;;9.10;99.90;;;;;;6204366;23;20721;-74
2022/12/28 11:45:50;;;;;;;7.80;2.60;;;8.80;99.90;;;;;;6204475;23;20406;-70
2022/12/28 11:48:57;;;;;;;3.60;1.63;;;9.20;99.90;;;;;;6203285;23;20424;-69
2022/12/28 11:51:26;;;;;;;3.57;1.50;;;9.30;99.90;;;;;;6204693;23;20395;-71
2022/12/28 11:53:58;;;;;;;1.20;1.10;;;9.10;99.90;;;;;;6204739;23;20403;-70
2022/12/28 11:56:27;;;;;;;5.13;1.63;;;9.30;99.90;;;;;;6204302;23;20454;-70
2022/12/28 11:59:21;;;;;;;2.37;1.60;;;9.10;99.90;;;;;;6204412;23;20527;-71
2022/12/28 12:01:53;;;;;;;1.40;1.30;;;9.10;99.90;;;;;;6204567;23;20768;-72
2022/12/28 12:04:37;;;;;;;1.67;1.47;;;8.80;99.90;;;;;;6204576;23;20492;-71
2022/12/28 12:07:28;;;;;;;163.60;123.17;;;9.10;99.90;;;;;;6204387;23;20498;-73
2022/12/28 12:10:26;;;;;;;2.60;1.40;;;9.50;99.90;;;;;;6195765;23;20423;-71
2022/12/28 12:12:53;;;;;;;1.90;1.03;;;9.10;99.90;;;;;;6204312;23;20402;-67
2022/12/28 12:15:26;;;;;;;4.20;1.30;;;9.00;99.90;;;;;;6203568;23;21070;-68
2022/12/28 12:17:58;;;;;;;2.13;0.90;;;9.30;99.90;;;;;;6203336;23;20391;-74
2022/12/28 12:20:48;;;;;;;1.87;1.30;;;9.60;99.90;;;;;;6204283;23;20501;-72
2022/12/28 12:23:39;;;;;;;1.60;1.30;;;10.10;99.90;;;;;;6202985;23;20458;-73
2022/12/28 12:26:45;;;;;;;2.60;1.00;;;10.70;99.90;;;;;;6203785;23;20923;-73
2022/12/28 12:29:36;;;;;;;1.30;1.20;;;10.70;99.90;;;;;;6200120;23;20425;-72
2022/12/28 12:32:11;;;;;;;1.30;1.00;;;10.20;99.90;;;;;;6205243;23;20418;-67
2022/12/28 12:34:46;;;;;;;1.40;1.30;;;10.80;99.90;;;;;;6203783;23;20736;-66
2022/12/28 12:37:31;;;;;;;1.30;1.10;;;10.60;99.90;;;;;;6203292;23;20505;-72
2022/12/28 12:40:28;;;;;;;1.47;1.07;;;10.40;99.90;;;;;;6204338;23;20773;-71
2022/12/28 12:43:26;;;;;;;1.50;1.40;;;10.90;99.90;;;;;;6204236;23;20909;-69
2022/12/28 12:46:03;;;;;;;0.90;0.80;;;9.90;99.90;;;;;;6186261;23;20873;-75
2022/12/28 12:48:56;;;;;;;4.60;1.07;;;10.30;99.90;;;;;;6205371;23;20395;-74
2022/12/28 12:51:32;;;;;;;1.67;1.10;;;10.20;99.90;;;;;;6139530;23;20413;-75
2022/12/28 12:54:17;;;;;;;1.73;1.10;;;10.40;99.90;;;;;;6205529;23;20405;-75
2022/12/28 12:56:52;;;;;;;2.20;1.00;;;11.10;99.90;;;;;;6206007;23;20396;-76
2022/12/28 12:59:38;;;;;;;2.43;1.07;;;11.50;99.90;;;;;;6206531;23;20439;-75
2022/12/28 13:02:31;;;;;;;1.17;0.90;;;11.90;99.90;;;;;;6208288;23;20395;-76
2022/12/28 13:05:02;;;;;;;1.93;1.20;;;11.30;99.90;;;;;;6204926;23;20411;-79
2022/12/28 13:07:30;;;;;;;1.50;1.30;;;11.70;99.90;;;;;;6207519;23;20419;-74
2022/12/28 13:10:03;;;;;;;1.30;0.90;;;12.40;99.90;;;;;;6205398;23;20428;-76
2022/12/28 13:12:33;;;;;;;1.00;0.90;;;13.00;99.90;;;;;;6204877;23;20882;-76
2022/12/28 13:15:02;;;;;;;2.57;1.10;;;13.50;99.90;;;;;;6205014;23;20422;-79
2022/12/28 13:17:29;;;;;;;1.70;1.30;;;13.10;99.90;;;;;;6212859;23;20463;-81
2022/12/28 13:20:17;;;;;;;2.40;1.20;;;11.60;99.90;;;;;;6206511;23;20439;-77
2022/12/28 13:22:46;;;;;;;1.67;1.20;;;12.20;99.90;;;;;;6205081;23;20832;-74
2022/12/28 13:25:24;;;;;;;1.40;1.10;;;11.50;99.90;;;;;;6204630;23;21142;-74
2022/12/28 13:27:51;;;;;;;2.70;1.30;;;11.20;99.90;;;;;;6206027;23;20383;-74
2022/12/28 13:30:18;;;;;;;1.10;1.00;;;11.00;99.90;;;;;;6206244;23;20395;-75
2022/12/28 13:32:56;;;;;;;1.50;1.40;;;10.90;99.90;;;;;;6211746;23;20478;-75
2022/12/28 13:35:26;;;;;;;2.13;1.20;;;10.80;99.90;;;;;;6214221;23;20810;-75
2022/12/28 13:38:02;;;;;;;1.30;1.20;;;11.20;99.90;;;;;;6215473;23;20459;-75
2022/12/28 13:40:30;;;;;;;3.13;1.30;;;11.40;99.90;;;;;;6214971;23;21114;-74